Time;durP1;ratioP1;P1;durP2;ratioP2;P2;SDS_P1;SDS_P2;PMS_P1;PMS_P2;Temp;Humidity;BMP_temperature;BMP_pressure;BME280_temperature;BME280_humidity;BME280_pressure;Samples;Min_cycle;Max_cycle;Signal;HPM_P1;HPM_P2
2022/02/14 00:01:40;;;;;;;10.88;5.03;;;-1.60;99.90;;;;;;21073951;28;20036;-49
2022/02/14 00:11:44;;;;;;;10.90;5.10;;;-1.80;99.90;;;;;;21056444;28;20036;-50
2022/02/14 00:21:47;;;;;;;10.20;5.43;;;-1.80;99.90;;;;;;21071046;28;20032;-49
2022/02/14 00:31:49;;;;;;;10.18;5.43;;;-1.80;99.90;;;;;;21071654;28;20035;-49
2022/02/14 00:41:52;;;;;;;11.35;5.30;;;-1.80;99.90;;;;;;21070433;28;20460;-50
2022/02/14 00:51:54;;;;;;;8.70;4.32;;;-1.70;99.90;;;;;;21069759;28;20125;-48
2022/02/14 01:01:56;;;;;;;8.82;5.15;;;-1.80;99.90;;;;;;21068533;28;20032;-49
2022/02/14 01:11:59;;;;;;;9.63;6.03;;;-2.10;99.90;;;;;;21068176;28;20101;-51
2022/02/14 01:22:02;;;;;;;9.75;5.40;;;-2.70;99.90;;;;;;21067596;28;20035;-48
2022/02/14 01:32:05;;;;;;;12.68;7.05;;;-3.40;99.90;;;;;;21066476;28;20487;-48
2022/02/14 01:42:09;;;;;;;12.38;5.28;;;-3.80;99.90;;;;;;21067862;28;20624;-48
2022/02/14 01:52:13;;;;;;;11.88;5.72;;;-4.20;99.90;;;;;;21065891;28;20044;-49
2022/02/14 02:02:16;;;;;;;11.90;5.78;;;-4.40;99.90;;;;;;21065230;28;20089;-48
2022/02/14 02:12:24;;;;;;;11.85;5.00;;;-4.30;99.90;;;;;;21065606;28;20113;-48
2022/02/14 02:22:28;;;;;;;15.20;5.60;;;-4.20;99.90;;;;;;21064428;28;20495;-48
2022/02/14 02:32:31;;;;;;;11.02;4.63;;;-4.20;99.90;;;;;;21063795;28;20040;-51
2022/02/14 02:42:34;;;;;;;10.27;5.05;;;-4.20;99.90;;;;;;21063794;28;20028;-50
2022/02/14 02:52:36;;;;;;;7.55;4.13;;;-4.30;99.90;;;;;;21078984;28;20519;-48
2022/02/14 03:02:39;;;;;;;10.23;4.95;;;-4.40;99.90;;;;;;21078698;28;20093;-48
2022/02/14 03:12:41;;;;;;;7.43;4.22;;;-4.40;99.90;;;;;;21078067;28;20114;-49
2022/02/14 03:22:44;;;;;;;6.63;3.40;;;-4.30;99.90;;;;;;21077594;28;20108;-50
2022/02/14 03:32:47;;;;;;;9.48;4.13;;;-4.40;99.90;;;;;;21077470;28;20040;-50
2022/02/14 03:42:49;;;;;;;7.75;4.03;;;-4.40;99.90;;;;;;21075976;28;20036;-48
2022/02/14 03:52:52;;;;;;;9.15;4.07;;;-4.50;99.90;;;;;;21074642;28;20800;-49
2022/02/14 04:02:54;;;;;;;11.35;4.28;;;-4.70;99.90;;;;;;21073504;28;20097;-48
2022/02/14 04:12:57;;;;;;;8.98;3.63;;;-4.60;99.90;;;;;;21074233;28;20040;-49
2022/02/14 04:23:00;;;;;;;9.75;3.90;;;-4.20;99.90;;;;;;21072037;28;20028;-50
2022/02/14 04:33:03;;;;;;;9.07;4.10;;;-4.00;99.90;;;;;;21071300;28;20032;-52
2022/02/14 04:43:06;;;;;;;6.15;3.58;;;-3.40;99.90;;;;;;21070640;28;20355;-48
2022/02/14 04:53:08;;;;;;;8.00;3.95;;;-2.80;99.90;;;;;;21069377;28;20105;-51
2022/02/14 05:03:11;;;;;;;6.82;3.92;;;-2.50;99.90;;;;;;21068977;28;20040;-49
2022/02/14 05:13:13;;;;;;;10.50;4.05;;;-2.20;99.90;;;;;;21067955;28;20040;-49
2022/02/14 05:23:17;;;;;;;7.05;3.75;;;-2.00;99.90;;;;;;21067770;28;20040;-50
2022/02/14 05:33:19;;;;;;;7.43;3.75;;;-2.10;99.90;;;;;;21067117;28;20040;-48
2022/02/14 05:43:21;;;;;;;7.85;3.95;;;-2.10;99.90;;;;;;21066575;28;20394;-48
2022/02/14 05:53:24;;;;;;;10.43;4.50;;;-2.10;99.90;;;;;;21065863;28;20349;-49
2022/02/14 06:03:27;;;;;;;9.45;4.80;;;-2.00;99.90;;;;;;21065730;28;20032;-52
2022/02/14 06:13:30;;;;;;;10.20;6.10;;;-2.00;99.90;;;;;;21066390;28;20429;-47
2022/02/14 06:23:33;;;;;;;10.43;5.00;;;-2.00;99.90;;;;;;21075144;28;20032;-52
2022/02/14 06:33:37;;;;;;;9.77;4.80;;;-1.90;99.90;;;;;;21081017;28;20148;-48
2022/02/14 06:43:39;;;;;;;10.80;5.10;;;-1.90;99.90;;;;;;21081837;28;20036;-52
2022/02/14 06:53:42;;;;;;;12.38;6.25;;;-1.80;99.90;;;;;;21075756;28;20078;-51
2022/02/14 07:03:44;;;;;;;9.82;5.43;;;-1.80;99.90;;;;;;21074115;28;20453;-50
2022/02/14 07:13:47;;;;;;;10.95;6.38;;;-1.70;99.90;;;;;;21073548;28;20028;-48
2022/02/14 07:23:52;;;;;;;9.88;5.90;;;-1.60;99.90;;;;;;21072428;28;20048;-51
2022/02/14 07:33:54;;;;;;;11.00;6.45;;;-1.50;99.90;;;;;;21072639;28;20036;-51
2022/02/14 07:43:56;;;;;;;10.63;6.28;;;-1.40;99.90;;;;;;21072241;28;20031;-50
2022/02/14 07:53:59;;;;;;;14.10;7.15;;;-1.20;99.90;;;;;;21026690;28;1370641;-48
2022/02/14 08:04:01;;;;;;;12.27;6.30;;;-1.00;99.90;;;;;;21074802;28;20094;-48
2022/02/14 08:14:04;;;;;;;9.85;6.13;;;-0.90;99.90;;;;;;21072940;28;20391;-51
2022/02/14 08:24:07;;;;;;;12.73;6.38;;;-0.70;99.90;;;;;;21072364;28;20036;-50
2022/02/14 08:34:10;;;;;;;12.00;7.38;;;-0.80;99.90;;;;;;21072475;28;20532;-52
2022/02/14 08:44:13;;;;;;;12.35;6.53;;;-0.50;99.90;;;;;;21070968;28;20028;-48
2022/02/14 08:54:16;;;;;;;11.20;6.72;;;-0.20;99.90;;;;;;21069851;28;20498;-49
2022/02/14 09:04:18;;;;;;;12.32;7.30;;;0.00;99.90;;;;;;21069248;28;20085;-51
2022/02/14 09:14:20;;;;;;;14.93;8.68;;;0.00;99.90;;;;;;21068202;28;20040;-51
2022/02/14 09:24:24;;;;;;;13.88;7.53;;;0.20;99.90;;;;;;21067616;28;20040;-50
2022/02/14 09:34:26;;;;;;;17.13;8.70;;;0.50;99.90;;;;;;21050575;28;20040;-49
2022/02/14 09:44:29;;;;;;;15.65;9.30;;;0.90;99.90;;;;;;21066689;28;20036;-48
2022/02/14 09:54:31;;;;;;;19.33;10.27;;;1.10;99.90;;;;;;21066100;28;20495;-49
2022/02/14 10:04:34;;;;;;;18.67;9.75;;;0.90;99.90;;;;;;21065293;28;20052;-51
2022/02/14 10:14:38;;;;;;;17.88;9.63;;;0.80;99.90;;;;;;20889333;28;20453;-48
2022/02/14 10:24:44;;;;;;;17.45;8.88;;;0.80;99.90;;;;;;20872702;28;20096;-48
2022/02/14 10:34:54;;;;;;;18.05;9.75;;;0.70;99.90;;;;;;20872496;28;20095;-49
2022/02/14 10:45:09;;;;;;;14.88;9.20;;;1.20;99.90;;;;;;20888469;28;20045;-49
2022/02/14 10:55:17;;;;;;;13.27;8.18;;;1.20;99.90;;;;;;20967595;28;20048;-48
2022/02/14 11:05:21;;;;;;;15.02;8.75;;;1.10;99.90;;;;;;21065738;28;20073;-50
2022/02/14 11:15:29;;;;;;;17.50;8.88;;;1.20;99.90;;;;;;21078290;28;20036;-49
2022/02/14 11:25:47;;;;;;;15.88;8.95;;;1.40;99.90;;;;;;21077671;28;20134;-49
2022/02/14 11:35:58;;;;;;;14.18;8.77;;;1.30;99.90;;;;;;21077012;28;20040;-49
2022/02/14 11:46:19;;;;;;;18.00;8.85;;;1.20;99.90;;;;;;21075627;28;20544;-50
2022/02/14 11:56:21;;;;;;;12.40;7.63;;;1.60;99.90;;;;;;21074712;28;20479;-48
2022/02/14 12:06:24;;;;;;;12.93;7.78;;;1.90;99.90;;;;;;21073742;28;20759;-49
2022/02/14 12:26:59;;;;;;;12.88;6.80;;;2.30;99.90;;;;;;21072344;28;20040;-48
2022/02/14 12:37:09;;;;;;;13.13;7.55;;;2.90;99.90;;;;;;21071291;28;20036;-48
2022/02/14 12:47:13;;;;;;;11.52;6.68;;;3.10;99.90;;;;;;21070871;28;20094;-48
2022/02/14 12:57:15;;;;;;;13.10;7.78;;;3.00;99.90;;;;;;21069602;28;20441;-49
2022/02/14 13:07:18;;;;;;;12.93;7.07;;;2.90;99.90;;;;;;21070171;28;20036;-48
2022/02/14 13:17:26;;;;;;;9.55;5.90;;;2.80;99.90;;;;;;21068092;28;20040;-48
2022/02/14 13:27:32;;;;;;;11.98;5.75;;;3.00;99.90;;;;;;21067295;28;20074;-48
2022/02/14 13:38:00;;;;;;;13.40;6.32;;;3.10;99.90;;;;;;21066548;28;20069;-49
2022/02/14 13:48:25;;;;;;;12.52;6.88;;;3.00;99.90;;;;;;21050559;28;20040;-51
2022/02/14 13:58:32;;;;;;;11.75;6.50;;;2.60;99.90;;;;;;21066676;28;20483;-49
2022/02/14 14:08:39;;;;;;;12.48;7.25;;;2.20;99.90;;;;;;21065197;28;20078;-52
2022/02/14 14:18:42;;;;;;;16.13;8.80;;;1.80;99.90;;;;;;21065163;28;20172;-48
2022/02/14 14:28:46;;;;;;;15.02;8.50;;;1.40;99.90;;;;;;21065166;28;20036;-49
2022/02/14 14:38:49;;;;;;;16.15;8.20;;;1.20;99.90;;;;;;21064061;28;20032;-51
2022/02/14 14:48:52;;;;;;;12.18;7.53;;;1.00;99.90;;;;;;21080112;28;20056;-51
2022/02/14 14:58:54;;;;;;;15.00;7.55;;;1.00;99.90;;;;;;21079311;28;20093;-48
2022/02/14 15:08:57;;;;;;;11.82;7.07;;;1.10;99.90;;;;;;21078662;28;20081;-51
2022/02/14 15:18:59;;;;;;;12.75;7.05;;;0.90;99.90;;;;;;21077705;28;20517;-50
2022/02/14 15:29:02;;;;;;;8.27;5.18;;;0.90;99.90;;;;;;21076878;28;20394;-49
2022/02/14 15:39:05;;;;;;;6.95;4.30;;;0.90;99.90;;;;;;21075960;28;20098;-48
2022/02/14 15:49:09;;;;;;;7.63;4.50;;;0.80;99.90;;;;;;21074942;28;20044;-52
2022/02/14 15:59:12;;;;;;;9.07;5.03;;;0.80;99.90;;;;;;21074762;28;20036;-50
2022/02/14 16:09:16;;;;;;;17.75;5.40;;;0.80;99.90;;;;;;21074030;28;20044;-51
2022/02/14 16:19:18;;;;;;;30.10;4.47;;;0.70;99.90;;;;;;21073547;28;20032;-53
2022/02/14 16:29:24;;;;;;;13.98;4.22;;;0.60;99.90;;;;;;21073256;28;20110;-51
2022/02/14 16:39:28;;;;;;;6.07;3.20;;;0.50;99.90;;;;;;21071154;28;20033;-48
2022/02/14 16:59:52;;;;;;;10.82;4.57;;;0.60;99.90;;;;;;21069471;28;20111;-49
2022/02/14 17:09:55;;;;;;;189.18;13.23;;;0.60;99.90;;;;;;21068243;28;20032;-48
2022/02/14 17:19:58;;;;;;;191.75;10.02;;;0.60;99.90;;;;;;21052093;28;20467;-51
2022/02/14 17:30:04;;;;;;;11.43;2.80;;;0.50;99.90;;;;;;21050853;28;20036;-52
2022/02/14 17:40:08;;;;;;;23.15;3.47;;;0.50;99.90;;;;;;21066681;28;20040;-50
2022/02/14 17:50:12;;;;;;;35.03;4.47;;;0.50;99.90;;;;;;21017960;28;20101;-51
2022/02/14 18:00:15;;;;;;;32.90;3.30;;;0.50;99.90;;;;;;21065229;28;20036;-50
2022/02/14 18:10:17;;;;;;;4.10;2.00;;;0.40;99.90;;;;;;21065059;28;20105;-49
2022/02/14 18:20:20;;;;;;;5.07;2.30;;;0.40;99.90;;;;;;21077991;28;20031;-48
2022/02/14 18:30:24;;;;;;;5.60;3.20;;;0.60;99.90;;;;;;21082164;28;20085;-50
2022/02/14 18:40:29;;;;;;;6.72;3.55;;;0.60;99.90;;;;;;21081018;28;20032;-49
2022/02/14 18:50:32;;;;;;;6.35;2.60;;;0.60;99.90;;;;;;21079963;28;20052;-49
2022/02/14 19:00:35;;;;;;;4.88;2.33;;;0.50;99.90;;;;;;21079145;28;20052;-49
2022/02/14 19:10:38;;;;;;;4.30;2.45;;;0.60;99.90;;;;;;21078622;28;20089;-49
2022/02/14 19:20:42;;;;;;;4.25;2.40;;;0.60;99.90;;;;;;21077697;28;20497;-48
2022/02/14 19:30:44;;;;;;;3.83;2.40;;;0.60;99.90;;;;;;21076511;28;20553;-50
2022/02/14 19:40:48;;;;;;;3.78;2.13;;;0.60;99.90;;;;;;21076236;28;20040;-49
2022/02/14 19:50:50;;;;;;;2.88;1.50;;;0.60;99.90;;;;;;21075391;28;20044;-49
2022/02/14 20:00:56;;;;;;;1.10;0.73;;;0.60;99.90;;;;;;21074621;28;20048;-48
2022/02/14 20:10:58;;;;;;;1.02;0.68;;;0.60;99.90;;;;;;21073815;28;20066;-49
2022/02/14 20:21:01;;;;;;;2.65;1.50;;;0.60;99.90;;;;;;21072810;28;20036;-51
2022/02/14 20:31:03;;;;;;;1.58;1.08;;;0.60;99.90;;;;;;21072635;28;20427;-50
2022/02/14 20:41:07;;;;;;;2.17;1.50;;;0.60;99.90;;;;;;21070172;28;20032;-52
2022/02/14 20:51:09;;;;;;;2.40;1.50;;;0.60;99.90;;;;;;21070465;28;20097;-50
2022/02/14 21:01:12;;;;;;;1.67;0.93;;;0.60;99.90;;;;;;21070798;28;20144;-52
2022/02/14 21:11:14;;;;;;;2.95;1.33;;;0.60;99.90;;;;;;21069576;28;20096;-51
2022/02/14 21:21:17;;;;;;;3.13;1.08;;;0.70;99.90;;;;;;21067950;28;20040;-52
2022/02/14 21:31:19;;;;;;;1.90;1.10;;;0.70;99.90;;;;;;21069076;28;20032;-54
2022/02/14 21:41:26;;;;;;;3.08;0.95;;;0.70;99.90;;;;;;21066894;28;20514;-52
2022/02/14 21:51:29;;;;;;;1.70;0.70;;;0.70;99.90;;;;;;21065863;28;20066;-54
2022/02/14 22:01:31;;;;;;;1.17;0.60;;;0.80;99.90;;;;;;21065582;28;20191;-51
2022/02/14 22:11:34;;;;;;;245.93;10.05;;;0.70;99.90;;;;;;21065145;28;20089;-53
2022/02/14 22:21:36;;;;;;;2.65;0.50;;;0.70;99.90;;;;;;21064948;28;20032;-53
2022/02/14 22:31:39;;;;;;;0.77;0.45;;;0.60;99.90;;;;;;21064282;28;20036;-50
2022/02/14 22:41:42;;;;;;;0.25;0.10;;;0.60;99.90;;;;;;21064071;28;20108;-52
2022/02/14 22:51:46;;;;;;;0.10;0.05;;;0.60;99.90;;;;;;21063484;28;20051;-53
2022/02/14 23:22:31;;;;;;;0.40;0.30;;;0.70;99.90;;;;;;21077569;28;20040;-53
2022/02/14 23:32:33;;;;;;;0.82;0.50;;;0.70;99.90;;;;;;21076651;28;20036;-50
2022/02/14 23:42:36;;;;;;;2.22;0.82;;;0.70;99.90;;;;;;21075752;28;20109;-48
2022/02/14 23:52:39;;;;;;;3.15;1.77;;;0.70;99.90;;;;;;21074764;28;20105;-50
